sensor_id;sensor_type;location;lat;lon;timestamp;pressure;altitude;pressure_sealevel;temperature;humidity
60099;BME280;62818;49.394;8.686;2023-08-06T00:00:58;99518.69;;;16.44;100.00
60099;BME280;62818;49.394;8.686;2023-08-06T00:01:59;99522.66;;;16.64;100.00
60099;BME280;62818;49.394;8.686;2023-08-06T00:02:59;99521.13;;;16.80;100.00
60099;BME280;62818;49.394;8.686;2023-08-06T00:04:00;99517.19;;;16.71;100.00
60099;BME280;62818;49.394;8.686;2023-08-06T00:05:01;99523.81;;;16.57;100.00
60099;BME280;62818;49.394;8.686;2023-08-06T00:06:04;99515.78;;;16.57;100.00
60099;BME280;62818;49.394;8.686;2023-08-06T00:07:05;99519.84;;;16.59;100.00
60099;BME280;62818;49.394;8.686;2023-08-06T00:08:05;99515.22;;;16.55;100.00
60099;BME280;62818;49.394;8.686;2023-08-06T00:09:06;99512.66;;;16.60;100.00
60099;BME280;62818;49.394;8.686;2023-08-06T00:10:06;99513.22;;;16.62;100.00
60099;BME280;62818;49.394;8.686;2023-08-06T00:11:07;99508.72;;;16.51;100.00
60099;BME280;62818;49.394;8.686;2023-08-06T00:12:08;99507.75;;;16.57;100.00
60099;BME280;62818;49.394;8.686;2023-08-06T00:13:09;99509.97;;;16.60;100.00
60099;BME280;62818;49.394;8.686;2023-08-06T00:14:09;99509.88;;;16.55;100.00
60099;BME280;62818;49.394;8.686;2023-08-06T00:15:11;99502.66;;;16.55;100.00
60099;BME280;62818;49.394;8.686;2023-08-06T00:16:12;99511.97;;;16.53;100.00
60099;BME280;62818;49.394;8.686;2023-08-06T00:17:13;99505.31;;;16.67;100.00
60099;BME280;62818;49.394;8.686;2023-08-06T00:18:14;99503.47;;;16.67;100.00
60099;BME280;62818;49.394;8.686;2023-08-06T00:19:14;99505.56;;;16.65;100.00
60099;BME280;62818;49.394;8.686;2023-08-06T00:20:15;99506.72;;;16.69;100.00
60099;BME280;62818;49.394;8.686;2023-08-06T00:21:15;99501.81;;;16.66;100.00
60099;BME280;62818;49.394;8.686;2023-08-06T00:22:16;99503.22;;;16.69;100.00
60099;BME280;62818;49.394;8.686;2023-08-06T00:23:16;99510.28;;;16.75;100.00
60099;BME280;62818;49.394;8.686;2023-08-06T00:24:18;99496.19;;;16.91;100.00
60099;BME280;62818;49.394;8.686;2023-08-06T00:25:18;99498.78;;;16.74;100.00
60099;BME280;62818;49.394;8.686;2023-08-06T00:26:19;99505.63;;;16.82;100.00
60099;BME280;62818;49.394;8.686;2023-08-06T00:27:20;99497.34;;;16.83;100.00
60099;BME280;62818;49.394;8.686;2023-08-06T00:28:21;99497.72;;;16.87;100.00
60099;BME280;62818;49.394;8.686;2023-08-06T00:29:21;99498.06;;;16.79;100.00
60099;BME280;62818;49.394;8.686;2023-08-06T00:30:22;99494.91;;;16.82;100.00
60099;BME280;62818;49.394;8.686;2023-08-06T00:31:22;99484.69;;;16.79;100.00
60099;BME280;62818;49.394;8.686;2023-08-06T00:32:23;99497.13;;;16.85;100.00
60099;BME280;62818;49.394;8.686;2023-08-06T00:33:23;99494.09;;;16.81;100.00
60099;BME280;62818;49.394;8.686;2023-08-06T00:34:24;99490.28;;;16.77;100.00
60099;BME280;62818;49.394;8.686;2023-08-06T00:35:25;99491.09;;;16.78;100.00
60099;BME280;62818;49.394;8.686;2023-08-06T00:36:25;99481.44;;;16.77;100.00
60099;BME280;62818;49.394;8.686;2023-08-06T00:37:26;99485.88;;;16.71;100.00
60099;BME280;62818;49.394;8.686;2023-08-06T00:38:26;99481.81;;;16.69;100.00
60099;BME280;62818;49.394;8.686;2023-08-06T00:39:27;99477.03;;;16.71;100.00
60099;BME280;62818;49.394;8.686;2023-08-06T00:40:27;99475.44;;;16.70;100.00
60099;BME280;62818;49.394;8.686;2023-08-06T00:41:30;99479.00;;;16.75;100.00
60099;BME280;62818;49.394;8.686;2023-08-06T00:42:30;99473.97;;;16.79;100.00
60099;BME280;62818;49.394;8.686;2023-08-06T00:43:31;99464.34;;;16.78;100.00
60099;BME280;62818;49.394;8.686;2023-08-06T00:44:31;99466.41;;;16.87;100.00
60099;BME280;62818;49.394;8.686;2023-08-06T00:45:34;99467.63;;;16.96;100.00
60099;BME280;62818;49.394;8.686;2023-08-06T00:46:36;99467.97;;;17.00;100.00
60099;BME280;62818;49.394;8.686;2023-08-06T00:47:37;99468.03;;;16.88;100.00
60099;BME280;62818;49.394;8.686;2023-08-06T00:48:40;99471.47;;;17.00;100.00
60099;BME280;62818;49.394;8.686;2023-08-06T00:49:42;99462.06;;;16.98;100.00
60099;BME280;62818;49.394;8.686;2023-08-06T00:50:43;99460.81;;;16.89;100.00
60099;BME280;62818;49.394;8.686;2023-08-06T00:51:43;99457.00;;;16.85;100.00
60099;BME280;62818;49.394;8.686;2023-08-06T00:52:44;99457.63;;;16.92;100.00
60099;BME280;62818;49.394;8.686;2023-08-06T00:53:49;99460.00;;;16.88;100.00
60099;BME280;62818;49.394;8.686;2023-08-06T00:54:50;99457.78;;;16.85;100.00
60099;BME280;62818;49.394;8.686;2023-08-06T00:55:51;99455.81;;;16.81;100.00
60099;BME280;62818;49.394;8.686;2023-08-06T00:56:52;99458.59;;;16.86;100.00
60099;BME280;62818;49.394;8.686;2023-08-06T00:57:54;99459.56;;;16.80;100.00
60099;BME280;62818;49.394;8.686;2023-08-06T00:58:56;99463.34;;;16.95;100.00
60099;BME280;62818;49.394;8.686;2023-08-06T00:59:57;99466.50;;;16.92;100.00
60099;BME280;62818;49.394;8.686;2023-08-06T01:00:58;99468.84;;;16.89;100.00
60099;BME280;62818;49.394;8.686;2023-08-06T01:01:58;99463.66;;;16.99;100.00
60099;BME280;62818;49.394;8.686;2023-08-06T01:02:59;99456.50;;;16.88;100.00
60099;BME280;62818;49.394;8.686;2023-08-06T01:04:00;99456.31;;;16.78;100.00
60099;BME280;62818;49.394;8.686;2023-08-06T01:05:01;99454.34;;;16.73;100.00
60099;BME280;62818;49.394;8.686;2023-08-06T01:06:02;99455.47;;;16.77;100.00
60099;BME280;62818;49.394;8.686;2023-08-06T01:08:58;99450.66;;;16.91;100.00
60099;BME280;62818;49.394;8.686;2023-08-06T01:10:23;99452.66;;;16.84;100.00
60099;BME280;62818;49.394;8.686;2023-08-06T01:11:43;99450.22;;;16.94;100.00
60099;BME280;62818;49.394;8.686;2023-08-06T01:12:56;99451.19;;;17.04;100.00
60099;BME280;62818;49.394;8.686;2023-08-06T01:14:26;99448.38;;;17.11;100.00
60099;BME280;62818;49.394;8.686;2023-08-06T01:15:41;99443.22;;;16.93;100.00
60099;BME280;62818;49.394;8.686;2023-08-06T01:16:44;99448.25;;;16.89;100.00
60099;BME280;62818;49.394;8.686;2023-08-06T01:17:45;99453.91;;;16.93;100.00
60099;BME280;62818;49.394;8.686;2023-08-06T01:18:49;99446.94;;;16.92;100.00
60099;BME280;62818;49.394;8.686;2023-08-06T01:19:50;99443.69;;;16.90;100.00
60099;BME280;62818;49.394;8.686;2023-08-06T01:20:50;99445.03;;;17.04;100.00
60099;BME280;62818;49.394;8.686;2023-08-06T01:21:51;99442.19;;;16.94;100.00
60099;BME280;62818;49.394;8.686;2023-08-06T01:22:51;99444.19;;;16.87;100.00
60099;BME280;62818;49.394;8.686;2023-08-06T01:23:52;99440.13;;;17.01;100.00
60099;BME280;62818;49.394;8.686;2023-08-06T01:24:53;99443.38;;;17.03;100.00
60099;BME280;62818;49.394;8.686;2023-08-06T01:26:11;99437.44;;;16.84;100.00
60099;BME280;62818;49.394;8.686;2023-08-06T01:27:38;99441.97;;;16.84;100.00
60099;BME280;62818;49.394;8.686;2023-08-06T01:30:15;99434.75;;;16.84;100.00
60099;BME280;62818;49.394;8.686;2023-08-06T01:31:24;99437.19;;;16.86;100.00
60099;BME280;62818;49.394;8.686;2023-08-06T01:32:29;99435.06;;;16.88;100.00
60099;BME280;62818;49.394;8.686;2023-08-06T01:33:34;99432.75;;;16.91;100.00
60099;BME280;62818;49.394;8.686;2023-08-06T01:34:40;99429.72;;;16.88;100.00
60099;BME280;62818;49.394;8.686;2023-08-06T01:35:44;99433.47;;;16.87;100.00
60099;BME280;62818;49.394;8.686;2023-08-06T01:36:47;99424.38;;;16.88;100.00
60099;BME280;62818;49.394;8.686;2023-08-06T01:37:48;99423.47;;;16.82;100.00
60099;BME280;62818;49.394;8.686;2023-08-06T01:38:48;99426.47;;;16.86;100.00
60099;BME280;62818;49.394;8.686;2023-08-06T01:39:51;99427.75;;;16.83;100.00
60099;BME280;62818;49.394;8.686;2023-08-06T01:40:52;99416.44;;;16.93;100.00
60099;BME280;62818;49.394;8.686;2023-08-06T01:41:52;99426.47;;;16.86;100.00
60099;BME280;62818;49.394;8.686;2023-08-06T01:42:53;99420.81;;;16.82;100.00
60099;BME280;62818;49.394;8.686;2023-08-06T01:43:53;99412.53;;;16.84;100.00
60099;BME280;62818;49.394;8.686;2023-08-06T01:44:54;99405.06;;;16.86;100.00
60099;BME280;62818;49.394;8.686;2023-08-06T01:45:54;99409.66;;;16.74;100.00
60099;BME280;62818;49.394;8.686;2023-08-06T01:46:55;99418.16;;;16.71;100.00
60099;BME280;62818;49.394;8.686;2023-08-06T01:47:55;99417.19;;;16.77;100.00
60099;BME280;62818;49.394;8.686;2023-08-06T01:48:56;99411.63;;;16.78;100.00
60099;BME280;62818;49.394;8.686;2023-08-06T01:49:56;99407.00;;;16.74;100.00
60099;BME280;62818;49.394;8.686;2023-08-06T01:50:56;99409.09;;;16.72;100.00
60099;BME280;62818;49.394;8.686;2023-08-06T01:51:57;99403.53;;;16.62;100.00
60099;BME280;62818;49.394;8.686;2023-08-06T01:52:57;99405.75;;;16.65;100.00
60099;BME280;62818;49.394;8.686;2023-08-06T01:53:58;99411.19;;;16.70;100.00
60099;BME280;62818;49.394;8.686;2023-08-06T01:54:58;99418.22;;;16.87;100.00
60099;BME280;62818;49.394;8.686;2023-08-06T01:55:59;99409.84;;;16.84;100.00
60099;BME280;62818;49.394;8.686;2023-08-06T01:56:59;99412.81;;;16.71;100.00
60099;BME280;62818;49.394;8.686;2023-08-06T01:58:00;99406.88;;;16.69;100.00
60099;BME280;62818;49.394;8.686;2023-08-06T01:59:00;99408.69;;;16.80;100.00
60099;BME280;62818;49.394;8.686;2023-08-06T02:00:01;99416.31;;;16.71;100.00
60099;BME280;62818;49.394;8.686;2023-08-06T02:01:02;99403.16;;;16.70;100.00
60099;BME280;62818;49.394;8.686;2023-08-06T02:02:03;99404.66;;;16.66;100.00
60099;BME280;62818;49.394;8.686;2023-08-06T02:03:03;99402.50;;;16.63;100.00
60099;BME280;62818;49.394;8.686;2023-08-06T02:04:04;99408.56;;;16.58;100.00
60099;BME280;62818;49.394;8.686;2023-08-06T02:05:05;99399.25;;;16.61;100.00
60099;BME280;62818;49.394;8.686;2023-08-06T02:06:06;99398.97;;;16.74;100.00
60099;BME280;62818;49.394;8.686;2023-08-06T02:07:06;99397.00;;;16.69;100.00
60099;BME280;62818;49.394;8.686;2023-08-06T02:08:07;99399.56;;;16.64;100.00
60099;BME280;62818;49.394;8.686;2023-08-06T02:09:07;99402.56;;;16.68;100.00
60099;BME280;62818;49.394;8.686;2023-08-06T02:10:08;99396.13;;;16.80;100.00
60099;BME280;62818;49.394;8.686;2023-08-06T02:11:08;99400.00;;;16.73;100.00
60099;BME280;62818;49.394;8.686;2023-08-06T02:12:09;99395.63;;;16.83;100.00
60099;BME280;62818;49.394;8.686;2023-08-06T02:13:09;99407.13;;;16.67;100.00
60099;BME280;62818;49.394;8.686;2023-08-06T02:14:09;99404.47;;;16.56;100.00
60099;BME280;62818;49.394;8.686;2023-08-06T02:15:10;99407.28;;;16.61;100.00
60099;BME280;62818;49.394;8.686;2023-08-06T02:16:10;99397.22;;;16.68;100.00
60099;BME280;62818;49.394;8.686;2023-08-06T02:17:11;99397.34;;;16.61;100.00
60099;BME280;62818;49.394;8.686;2023-08-06T02:18:11;99400.72;;;16.68;100.00
60099;BME280;62818;49.394;8.686;2023-08-06T02:19:12;99395.03;;;16.65;100.00
60099;BME280;62818;49.394;8.686;2023-08-06T02:20:12;99393.97;;;16.66;100.00
60099;BME280;62818;49.394;8.686;2023-08-06T02:21:13;99392.25;;;16.60;100.00
60099;BME280;62818;49.394;8.686;2023-08-06T02:22:13;99383.38;;;16.71;100.00
60099;BME280;62818;49.394;8.686;2023-08-06T02:23:14;99391.06;;;16.67;100.00
60099;BME280;62818;49.394;8.686;2023-08-06T02:24:14;99389.28;;;16.73;100.00
60099;BME280;62818;49.394;8.686;2023-08-06T02:25:15;99395.03;;;16.65;100.00
60099;BME280;62818;49.394;8.686;2023-08-06T02:26:15;99394.94;;;16.60;100.00
60099;BME280;62818;49.394;8.686;2023-08-06T02:27:16;99388.53;;;16.61;100.00
60099;BME280;62818;49.394;8.686;2023-08-06T02:28:17;99399.81;;;16.63;100.00
60099;BME280;62818;49.394;8.686;2023-08-06T02:29:18;99390.81;;;16.69;100.00
60099;BME280;62818;49.394;8.686;2023-08-06T02:30:18;99398.56;;;16.82;100.00
60099;BME280;62818;49.394;8.686;2023-08-06T02:31:19;99392.75;;;16.85;100.00
60099;BME280;62818;49.394;8.686;2023-08-06T02:32:19;99399.53;;;16.76;100.00
60099;BME280;62818;49.394;8.686;2023-08-06T02:33:20;99401.13;;;16.77;100.00
60099;BME280;62818;49.394;8.686;2023-08-06T02:34:20;99401.06;;;16.72;100.00
60099;BME280;62818;49.394;8.686;2023-08-06T02:35:22;99397.06;;;16.74;100.00
60099;BME280;62818;49.394;8.686;2023-08-06T02:36:28;99396.94;;;16.81;100.00
60099;BME280;62818;49.394;8.686;2023-08-06T02:37:29;99404.38;;;16.79;100.00
60099;BME280;62818;49.394;8.686;2023-08-06T02:38:30;99410.31;;;16.81;100.00
60099;BME280;62818;49.394;8.686;2023-08-06T02:39:31;99402.81;;;16.66;100.00
60099;BME280;62818;49.394;8.686;2023-08-06T02:40:33;99397.81;;;16.70;100.00
60099;BME280;62818;49.394;8.686;2023-08-06T02:41:34;99397.44;;;16.78;100.00
60099;BME280;62818;49.394;8.686;2023-08-06T02:42:34;99398.09;;;16.85;100.00
60099;BME280;62818;49.394;8.686;2023-08-06T02:43:35;99390.63;;;16.87;100.00
60099;BME280;62818;49.394;8.686;2023-08-06T02:44:35;99391.22;;;16.89;100.00
60099;BME280;62818;49.394;8.686;2023-08-06T02:45:36;99399.19;;;17.00;100.00
60099;BME280;62818;49.394;8.686;2023-08-06T02:46:36;99397.44;;;16.94;100.00
60099;BME280;62818;49.394;8.686;2023-08-06T02:47:37;99389.97;;;16.80;100.00
60099;BME280;62818;49.394;8.686;2023-08-06T02:48:37;99392.53;;;16.75;100.00
60099;BME280;62818;49.394;8.686;2023-08-06T02:49:38;99391.09;;;16.84;100.00
60099;BME280;62818;49.394;8.686;2023-08-06T02:50:39;99389.16;;;16.79;100.00
60099;BME280;62818;49.394;8.686;2023-08-06T02:51:40;99394.19;;;16.76;100.00
60099;BME280;62818;49.394;8.686;2023-08-06T02:52:41;99396.75;;;16.71;100.00
60099;BME280;62818;49.394;8.686;2023-08-06T02:53:41;99389.44;;;16.66;100.00
60099;BME280;62818;49.394;8.686;2023-08-06T02:54:42;99380.38;;;16.67;100.00
60099;BME280;62818;49.394;8.686;2023-08-06T02:55:47;99390.72;;;16.64;100.00
60099;BME280;62818;49.394;8.686;2023-08-06T02:56:48;99394.75;;;16.78;100.00
60099;BME280;62818;49.394;8.686;2023-08-06T02:57:48;99387.59;;;16.67;100.00
60099;BME280;62818;49.394;8.686;2023-08-06T02:58:49;99390.03;;;16.57;100.00
60099;BME280;62818;49.394;8.686;2023-08-06T02:59:49;99394.47;;;16.63;100.00
60099;BME280;62818;49.394;8.686;2023-08-06T03:01:03;99380.97;;;16.58;100.00
60099;BME280;62818;49.394;8.686;2023-08-06T03:02:05;99386.47;;;16.51;100.00
60099;BME280;62818;49.394;8.686;2023-08-06T03:03:05;99383.50;;;16.64;100.00
60099;BME280;62818;49.394;8.686;2023-08-06T03:04:06;99386.44;;;16.63;100.00
60099;BME280;62818;49.394;8.686;2023-08-06T03:05:07;99382.25;;;16.55;100.00
60099;BME280;62818;49.394;8.686;2023-08-06T03:06:07;99392.38;;;16.65;100.00
60099;BME280;62818;49.394;8.686;2023-08-06T03:07:08;99391.41;;;16.71;100.00
60099;BME280;62818;49.394;8.686;2023-08-06T03:08:08;99378.31;;;16.58;100.00
60099;BME280;62818;49.394;8.686;2023-08-06T03:09:09;99388.75;;;16.59;100.00
60099;BME280;62818;49.394;8.686;2023-08-06T03:10:09;99388.91;;;16.53;100.00
60099;BME280;62818;49.394;8.686;2023-08-06T03:11:10;99377.97;;;16.43;100.00
60099;BME280;62818;49.394;8.686;2023-08-06T03:12:10;99386.13;;;16.48;100.00
60099;BME280;62818;49.394;8.686;2023-08-06T03:13:11;99388.19;;;16.46;100.00
60099;BME280;62818;49.394;8.686;2023-08-06T03:14:11;99381.81;;;16.47;100.00
60099;BME280;62818;49.394;8.686;2023-08-06T03:15:11;99382.41;;;16.37;100.00
60099;BME280;62818;49.394;8.686;2023-08-06T03:16:12;99384.47;;;16.47;100.00
60099;BME280;62818;49.394;8.686;2023-08-06T03:17:12;99379.84;;;16.54;100.00
60099;BME280;62818;49.394;8.686;2023-08-06T03:18:13;99379.34;;;16.57;100.00
60099;BME280;62818;49.394;8.686;2023-08-06T03:19:13;99371.00;;;16.53;100.00
60099;BME280;62818;49.394;8.686;2023-08-06T03:20:14;99376.72;;;16.33;100.00
60099;BME280;62818;49.394;8.686;2023-08-06T03:21:14;99375.56;;;16.29;100.00
60099;BME280;62818;49.394;8.686;2023-08-06T03:22:15;99375.16;;;16.49;100.00
60099;BME280;62818;49.394;8.686;2023-08-06T03:23:15;99373.41;;;16.55;100.00
60099;BME280;62818;49.394;8.686;2023-08-06T03:24:16;99376.09;;;16.55;100.00
60099;BME280;62818;49.394;8.686;2023-08-06T03:25:16;99374.94;;;16.51;100.00
60099;BME280;62818;49.394;8.686;2023-08-06T03:26:18;99371.81;;;16.54;100.00
60099;BME280;62818;49.394;8.686;2023-08-06T03:27:18;99370.28;;;16.58;100.00
60099;BME280;62818;49.394;8.686;2023-08-06T03:28:19;99374.00;;;16.57;100.00
60099;BME280;62818;49.394;8.686;2023-08-06T03:29:19;99375.63;;;16.58;100.00
60099;BME280;62818;49.394;8.686;2023-08-06T03:30:21;99382.75;;;16.52;100.00
60099;BME280;62818;49.394;8.686;2023-08-06T03:31:21;99374.00;;;16.57;100.00
60099;BME280;62818;49.394;8.686;2023-08-06T03:32:22;99376.59;;;16.52;100.00
60099;BME280;62818;49.394;8.686;2023-08-06T03:33:22;99371.00;;;16.42;100.00
60099;BME280;62818;49.394;8.686;2023-08-06T03:34:23;99362.50;;;16.45;100.00
60099;BME280;62818;49.394;8.686;2023-08-06T03:35:23;99368.66;;;16.45;100.00
60099;BME280;62818;49.394;8.686;2023-08-06T03:36:24;99363.53;;;16.55;100.00
60099;BME280;62818;49.394;8.686;2023-08-06T03:37:24;99356.91;;;16.58;100.00
60099;BME280;62818;49.394;8.686;2023-08-06T03:38:25;99365.38;;;16.55;100.00
60099;BME280;62818;49.394;8.686;2023-08-06T03:39:25;99359.16;;;16.38;100.00
60099;BME280;62818;49.394;8.686;2023-08-06T03:40:26;99361.44;;;16.46;100.00
60099;BME280;62818;49.394;8.686;2023-08-06T03:41:26;99363.22;;;16.52;100.00
60099;BME280;62818;49.394;8.686;2023-08-06T03:42:27;99362.16;;;16.53;100.00
60099;BME280;62818;49.394;8.686;2023-08-06T03:43:27;99356.69;;;16.48;100.00
60099;BME280;62818;49.394;8.686;2023-08-06T03:44:28;99359.00;;;16.44;100.00
60099;BME280;62818;49.394;8.686;2023-08-06T03:45:28;99359.13;;;16.49;100.00
60099;BME280;62818;49.394;8.686;2023-08-06T03:46:29;99359.38;;;16.48;100.00
60099;BME280;62818;49.394;8.686;2023-08-06T03:47:34;99360.03;;;16.55;100.00
60099;BME280;62818;49.394;8.686;2023-08-06T03:48:34;99353.66;;;16.56;100.00
60099;BME280;62818;49.394;8.686;2023-08-06T03:49:35;99365.44;;;16.43;100.00
60099;BME280;62818;49.394;8.686;2023-08-06T03:50:35;99360.97;;;16.49;100.00
60099;BME280;62818;49.394;8.686;2023-08-06T03:51:36;99352.66;;;16.33;100.00
60099;BME280;62818;49.394;8.686;2023-08-06T03:52:36;99358.66;;;16.12;100.00
60099;BME280;62818;49.394;8.686;2023-08-06T03:53:37;99356.16;;;16.22;100.00
60099;BME280;62818;49.394;8.686;2023-08-06T03:54:37;99357.19;;;16.33;100.00
60099;BME280;62818;49.394;8.686;2023-08-06T03:55:39;99354.88;;;16.25;100.00
60099;BME280;62818;49.394;8.686;2023-08-06T03:56:39;99362.56;;;16.21;100.00
60099;BME280;62818;49.394;8.686;2023-08-06T03:57:40;99370.56;;;16.21;100.00
60099;BME280;62818;49.394;8.686;2023-08-06T03:58:40;99364.19;;;16.22;100.00
60099;BME280;62818;49.394;8.686;2023-08-06T03:59:41;99370.94;;;16.25;100.00
60099;BME280;62818;49.394;8.686;2023-08-06T04:00:41;99355.13;;;16.23;100.00
60099;BME280;62818;49.394;8.686;2023-08-06T04:01:42;99360.47;;;16.23;100.00
60099;BME280;62818;49.394;8.686;2023-08-06T04:02:42;99360.84;;;16.15;100.00
60099;BME280;62818;49.394;8.686;2023-08-06T04:03:43;99366.81;;;16.06;100.00
60099;BME280;62818;49.394;8.686;2023-08-06T04:04:44;99363.19;;;16.00;100.00
60099;BME280;62818;49.394;8.686;2023-08-06T04:05:44;99364.34;;;16.04;100.00
60099;BME280;62818;49.394;8.686;2023-08-06T04:06:44;99360.06;;;16.03;100.00
60099;BME280;62818;49.394;8.686;2023-08-06T04:07:45;99366.44;;;16.02;100.00
60099;BME280;62818;49.394;8.686;2023-08-06T04:08:45;99359.56;;;16.06;100.00
60099;BME280;62818;49.394;8.686;2023-08-06T04:09:59;99358.53;;;16.07;100.00
60099;BME280;62818;49.394;8.686;2023-08-06T04:11:00;99369.00;;;15.97;100.00
60099;BME280;62818;49.394;8.686;2023-08-06T04:12:01;99356.91;;;16.06;100.00
60099;BME280;62818;49.394;8.686;2023-08-06T04:13:02;99360.97;;;15.97;100.00
60099;BME280;62818;49.394;8.686;2023-08-06T04:14:03;99365.28;;;15.98;100.00
60099;BME280;62818;49.394;8.686;2023-08-06T04:15:04;99364.69;;;16.08;100.00
60099;BME280;62818;49.394;8.686;2023-08-06T04:16:05;99374.56;;;16.07;100.00
60099;BME280;62818;49.394;8.686;2023-08-06T04:17:05;99367.59;;;16.06;100.00
60099;BME280;62818;49.394;8.686;2023-08-06T04:18:06;99367.97;;;15.98;100.00
60099;BME280;62818;49.394;8.686;2023-08-06T04:19:06;99362.63;;;15.98;100.00
60099;BME280;62818;49.394;8.686;2023-08-06T04:20:07;99365.63;;;16.02;100.00
60099;BME280;62818;49.394;8.686;2023-08-06T04:21:08;99366.31;;;15.97;100.00
60099;BME280;62818;49.394;8.686;2023-08-06T04:22:08;99364.72;;;15.85;100.00
60099;BME280;62818;49.394;8.686;2023-08-06T04:23:08;99367.50;;;15.90;100.00
60099;BME280;62818;49.394;8.686;2023-08-06T04:24:09;99370.44;;;15.88;100.00
60099;BME280;62818;49.394;8.686;2023-08-06T04:25:09;99367.75;;;15.88;100.00
60099;BME280;62818;49.394;8.686;2023-08-06T04:26:10;99362.50;;;15.93;100.00
60099;BME280;62818;49.394;8.686;2023-08-06T04:27:11;99362.16;;;15.78;100.00
60099;BME280;62818;49.394;8.686;2023-08-06T04:28:12;99371.91;;;15.84;100.00
60099;BME280;62818;49.394;8.686;2023-08-06T04:29:12;99364.84;;;15.78;100.00
60099;BME280;62818;49.394;8.686;2023-08-06T04:30:13;99369.72;;;15.81;100.00
60099;BME280;62818;49.394;8.686;2023-08-06T04:31:14;99366.72;;;15.66;100.00
60099;BME280;62818;49.394;8.686;2023-08-06T04:32:15;99369.97;;;15.68;100.00
60099;BME280;62818;49.394;8.686;2023-08-06T04:33:15;99368.91;;;15.69;100.00
60099;BME280;62818;49.394;8.686;2023-08-06T04:34:16;99371.13;;;15.72;100.00
60099;BME280;62818;49.394;8.686;2023-08-06T04:35:16;99376.47;;;15.72;100.00
60099;BME280;62818;49.394;8.686;2023-08-06T04:36:17;99360.19;;;15.62;100.00
60099;BME280;62818;49.394;8.686;2023-08-06T04:37:17;99372.06;;;15.66;100.00
60099;BME280;62818;49.394;8.686;2023-08-06T04:38:17;99363.91;;;15.61;100.00
60099;BME280;62818;49.394;8.686;2023-08-06T04:39:18;99363.34;;;15.71;100.00
60099;BME280;62818;49.394;8.686;2023-08-06T04:40:18;99367.75;;;15.65;100.00
60099;BME280;62818;49.394;8.686;2023-08-06T04:41:19;99369.72;;;15.81;100.00
60099;BME280;62818;49.394;8.686;2023-08-06T04:42:19;99369.72;;;15.81;100.00
60099;BME280;62818;49.394;8.686;2023-08-06T04:43:20;99369.03;;;15.74;100.00
60099;BME280;62818;49.394;8.686;2023-08-06T04:44:26;99372.72;;;15.73;100.00
60099;BME280;62818;49.394;8.686;2023-08-06T04:45:27;99369.13;;;15.56;100.00
60099;BME280;62818;49.394;8.686;2023-08-06T04:46:27;99369.97;;;15.68;100.00
60099;BME280;62818;49.394;8.686;2023-08-06T04:47:28;99370.53;;;15.70;100.00
60099;BME280;62818;49.394;8.686;2023-08-06T04:48:28;99383.09;;;15.70;100.00
60099;BME280;62818;49.394;8.686;2023-08-06T04:49:29;99377.75;;;15.70;100.00
60099;BME280;62818;49.394;8.686;2023-08-06T04:50:29;99377.84;;;15.63;100.00
60099;BME280;62818;49.394;8.686;2023-08-06T04:51:30;99380.06;;;15.66;100.00
60099;BME280;62818;49.394;8.686;2023-08-06T04:52:30;99375.31;;;15.68;100.00
60099;BME280;62818;49.394;8.686;2023-08-06T04:53:32;99374.16;;;15.64;100.00
60099;BME280;62818;49.394;8.686;2023-08-06T04:54:33;99383.66;;;15.60;100.00
60099;BME280;62818;49.394;8.686;2023-08-06T04:55:34;99377.28;;;15.61;100.00
60099;BME280;62818;49.394;8.686;2023-08-06T04:56:34;99378.56;;;15.58;100.00
60099;BME280;62818;49.394;8.686;2023-08-06T04:57:35;99380.41;;;15.58;100.00
60099;BME280;62818;49.394;8.686;2023-08-06T04:58:35;99380.97;;;15.60;100.00
60099;BME280;62818;49.394;8.686;2023-08-06T04:59:35;99372.63;;;15.56;100.00
60099;BME280;62818;49.394;8.686;2023-08-06T05:00:36;99379.50;;;15.52;100.00
60099;BME280;62818;49.394;8.686;2023-08-06T05:01:36;99376.13;;;15.57;100.00
60099;BME280;62818;49.394;8.686;2023-08-06T05:02:37;99377.03;;;15.63;100.00
60099;BME280;62818;49.394;8.686;2023-08-06T05:03:38;99377.53;;;15.60;100.00
60099;BME280;62818;49.394;8.686;2023-08-06T05:04:39;99372.38;;;15.58;100.00
60099;BME280;62818;49.394;8.686;2023-08-06T05:05:40;99375.06;;;15.58;100.00
60099;BME280;62818;49.394;8.686;2023-08-06T05:06:41;99371.81;;;15.56;100.00
60099;BME280;62818;49.394;8.686;2023-08-06T05:07:42;99378.09;;;15.50;100.00
60099;BME280;62818;49.394;8.686;2023-08-06T05:08:42;99374.97;;;15.53;100.00
60099;BME280;62818;49.394;8.686;2023-08-06T05:09:43;99380.25;;;15.41;100.00
60099;BME280;62818;49.394;8.686;2023-08-06T05:10:44;99374.69;;;15.43;100.00
60099;BME280;62818;49.394;8.686;2023-08-06T05:11:46;99389.41;;;15.34;100.00
60099;BME280;62818;49.394;8.686;2023-08-06T05:12:47;99384.19;;;15.39;100.00
60099;BME280;62818;49.394;8.686;2023-08-06T05:13:47;99377.34;;;15.43;100.00
60099;BME280;62818;49.394;8.686;2023-08-06T05:14:48;99377.34;;;15.43;100.00
60099;BME280;62818;49.394;8.686;2023-08-06T05:15:48;99374.53;;;15.38;100.00
60099;BME280;62818;49.394;8.686;2023-08-06T05:16:49;99378.53;;;15.47;100.00
60099;BME280;62818;49.394;8.686;2023-08-06T05:17:49;99381.91;;;15.54;100.00
60099;BME280;62818;49.394;8.686;2023-08-06T05:18:50;99369.38;;;15.54;100.00
60099;BME280;62818;49.394;8.686;2023-08-06T05:19:50;99374.53;;;15.38;100.00
60099;BME280;62818;49.394;8.686;2023-08-06T05:20:51;99378.28;;;15.37;100.00
60099;BME280;62818;49.394;8.686;2023-08-06T05:21:51;99375.84;;;15.35;100.00
60099;BME280;62818;49.394;8.686;2023-08-06T05:22:52;99373.03;;;15.30;100.00
60099;BME280;62818;49.394;8.686;2023-08-06T05:23:52;99370.25;;;15.25;100.00
60099;BME280;62818;49.394;8.686;2023-08-06T05:24:53;99370.25;;;15.25;100.00